LFMPLFMU

Guest
Details From LFMP - Rivesaltes
To LFMU - Beziers Vias
Flight Number -
Tags generated
Created
Modified
Stats Distance 41 nm / 76 km
Max Altitude 200 ft / 61 m
Waypoints 3
Social Downloads 5
Likes 0
Share

Download

Looking for another format? Having issues loading an existing format? Contact us
Advertisement - Login to hide

Notes

Basic altitude profile: - Ascent Rate: 2500ft/min - Ascent Speed: 200kts - Cruise Altitude: 1000ft - Cruise Speed: 150kts - Descent Rate: 800ft/min - Descent Speed: 20kts Options: - Use NATs: yes - Use PACOTS: yes - Use low airways: yes - Use high airways: yes

Route

LFMP PPG LFMU

ID Type Via Altitude (ft/m) Position (lat/lon) Dist (leg/tot) Name
O LFMP APT - 0 / 0 42.74049 / 2.87059 - / 0 nm Rivesaltes
PPG VOR - 200 / 61 42.75047 / 2.86714 0 / 0 nm PERPIGNAN RIVESALTES VOR-DME
O LFMU APT - 0 / 0 43.32342 / 3.35357 40 / 41 nm Beziers Vias

Altitude Profile

Advertisement - Login to hide

LFMP

Details ICAO LFMP (PGF)
Name Rivesaltes
Region France
Timezone Europe/Paris (UTC+2.0)
Stats Elevation 143 ft / 44 m (AMSL)
Location 42.740200° 2.870790°
Runways 2
Magnetic Variation 1.321° E

METAR

LFMP 241500Z AUTO 13007KT CAVOK 19/10 Q1018 NOSIG

Decode

TAF

TAF LFMP 241400Z 2415/2515 10010KT CAVOK BECMG 2417/2419 VRB03KT PROB30 TEMPO 2503/2509 2000 BR BKN003

Decode

Departure Runways

ID Width Length Bearing (true/mag) Surface Threshold Overrun Markings Lighting
13 66 ft / 20 m 3,635 ft / 1,108 m 129.20° / 127.88° ASPHALT 0 ft / 0 m 528 ft / 161 m APP EDGE THRESHOLD
15 148 ft / 45 m 8,296 ft / 2,529 m 148.79° / 147.47° ASPHALT 0 ft / 0 m 230 ft / 70 m PREC-APP EDGE THRESHOLD REIL-OMNI
31 66 ft / 20 m 3,635 ft / 1,108 m 309.21° / 307.89° ASPHALT 0 ft / 0 m 0 ft / 0 m APP EDGE THRESHOLD
33 148 ft / 45 m 8,296 ft / 2,529 m 328.80° / 327.48° ASPHALT 558 ft / 170 m 230 ft / 70 m PREC-APP EDGE THRESHOLD ALSF-I

LFMU

Details ICAO LFMU (BZR)
Name Beziers Vias
Region France
Timezone Europe/Paris (UTC+2.0)
Stats Elevation 54 ft / 16 m (AMSL)
Location 43.323300° 3.354690°
Runways 1
Magnetic Variation 1.433° E

METAR

LFMU 241500Z AUTO 19010KT 150V210 CAVOK 18/12 Q1018 NOSIG

Decode

TAF

TAF LFMU 241400Z 2415/2515 20010KT CAVOK BECMG 2419/2421 03007KT TEMPO 2502/2508 2000 BR BKN005

Decode

Destination Runways

ID Width Length Bearing (true/mag) Surface Threshold Overrun Markings Lighting
09 148 ft / 45 m 6,568 ft / 2,002 m 94.39° / 92.96° ASPHALT 0 ft / 0 m 154 ft / 47 m PREC-APP EDGE THRESHOLD REIL-OMNI
27 148 ft / 45 m 6,568 ft / 2,002 m 274.41° / 272.98° ASPHALT 0 ft / 0 m 151 ft / 46 m PREC-APP EDGE THRESHOLD REIL-OMNI

Approach Navaids

Runway Type Ident Frequency Range Bearing (true/mag) Slope Elevation
09 DME ZR 109.35 MHz 18 nm / 33 km - - 92 ft / 28 m (AMSL)

Popular Alternatives